Time;durP1;ratioP1;P1;durP2;ratioP2;P2;SDS_P1;SDS_P2;PMS_P1;PMS_P2;Temp;Humidity;BMP_temperature;BMP_pressure;BME280_temperature;BME280_humidity;BME280_pressure;Samples;Min_cycle;Max_cycle;Signal;HPM_P1;HPM_P2
2023/08/31 00:02:15;;;;;;;0.00;0.00;;;15.50;93.50;;;;;;5041351;28;20236;-72
2023/08/31 00:04:40;;;;;;;0.00;0.00;;;15.30;93.80;;;;;;5041804;28;20044;-76
2023/08/31 00:07:06;;;;;;;0.53;0.53;;;15.10;94.20;;;;;;5040129;28;20489;-71
2023/08/31 00:09:32;;;;;;;0.10;0.10;;;15.10;94.60;;;;;;5040675;28;20025;-73
2023/08/31 00:12:01;;;;;;;0.00;0.00;;;15.00;94.40;;;;;;5036767;28;20729;-73
2023/08/31 00:14:27;;;;;;;0.00;0.00;;;15.00;94.30;;;;;;5042175;28;20041;-72
2023/08/31 00:16:53;;;;;;;0.10;0.10;;;14.80;94.80;;;;;;5040809;28;20029;-75
2023/08/31 00:19:19;;;;;;;0.00;0.00;;;14.80;94.80;;;;;;5042774;28;20099;-73
2023/08/31 00:21:45;;;;;;;0.10;0.10;;;14.80;94.90;;;;;;5045773;28;20455;-75
2023/08/31 00:24:11;;;;;;;0.00;0.00;;;14.60;95.20;;;;;;5046762;28;20036;-74
2023/08/31 00:26:42;;;;;;;0.10;0.10;;;14.60;95.20;;;;;;5046170;28;20455;-74
2023/08/31 00:29:10;;;;;;;0.00;0.00;;;14.50;95.30;;;;;;5046624;28;20025;-74
2023/08/31 00:31:37;;;;;;;0.00;0.00;;;14.50;95.60;;;;;;5045069;28;20813;-74
2023/08/31 00:34:04;;;;;;;0.10;0.10;;;14.60;95.60;;;;;;5045371;28;20143;-74
2023/08/31 00:36:33;;;;;;;;;;;14.40;95.70;;;;;;5046794;28;20033;-74
2023/08/31 00:39:02;;;;;;;0.10;0.10;;;14.30;95.90;;;;;;5045907;28;20596;-75
2023/08/31 00:41:28;;;;;;;0.00;0.00;;;14.30;96.10;;;;;;5046724;28;20064;-78
2023/08/31 00:43:54;;;;;;;0.00;0.00;;;14.20;96.30;;;;;;5046365;28;20120;-76
2023/08/31 00:46:19;;;;;;;0.67;0.67;;;14.30;96.10;;;;;;5046444;28;20096;-73
2023/08/31 00:48:45;;;;;;;0.00;0.00;;;14.20;96.20;;;;;;5045852;28;20029;-75
2023/08/31 00:51:11;;;;;;;0.87;0.87;;;14.40;95.80;;;;;;5046213;28;20473;-74
2023/08/31 00:53:37;;;;;;;0.10;0.10;;;14.30;96.00;;;;;;5044230;28;20048;-73
2023/08/31 00:56:03;;;;;;;0.10;0.10;;;14.20;96.40;;;;;;5045821;28;20021;-75
2023/08/31 00:58:30;;;;;;;0.10;0.10;;;14.00;96.60;;;;;;5044079;28;20037;-75
2023/08/31 01:01:18;;;;;;;0.00;0.00;;;14.10;96.30;;;;;;5045867;28;20032;-74
2023/08/31 01:03:51;;;;;;;0.10;0.10;;;14.10;96.60;;;;;;5045396;28;20051;-75
2023/08/31 01:06:35;;;;;;;0.40;0.40;;;14.10;96.50;;;;;;5045198;28;20045;-78
2023/08/31 01:09:08;;;;;;;0.00;0.00;;;14.00;96.60;;;;;;5044160;28;20060;-77
2023/08/31 01:11:42;;;;;;;0.10;0.10;;;14.00;96.30;;;;;;5045986;28;20020;-74
2023/08/31 01:14:15;;;;;;;0.00;0.00;;;14.30;96.00;;;;;;5043996;28;20049;-79
2023/08/31 01:16:43;;;;;;;0.00;0.00;;;14.30;96.10;;;;;;5045259;28;20115;-80
2023/08/31 01:19:27;;;;;;;0.10;0.10;;;14.10;96.20;;;;;;5043386;28;20021;-77
2023/08/31 01:21:57;;;;;;;0.03;0.03;;;13.90;96.80;;;;;;5039363;28;20078;-76
2023/08/31 01:24:24;;;;;;;0.10;0.10;;;13.90;96.90;;;;;;5043596;28;20546;-79
2023/08/31 01:26:52;;;;;;;0.05;0.05;;;13.80;97.20;;;;;;5044182;28;20025;-78
2023/08/31 01:29:19;;;;;;;0.10;0.10;;;14.00;96.90;;;;;;5045279;28;20065;-75
2023/08/31 01:31:45;;;;;;;0.03;0.03;;;13.90;97.00;;;;;;5040429;28;20086;-79
2023/08/31 01:34:11;;;;;;;0.10;0.10;;;14.10;96.80;;;;;;5043563;28;20064;-76
2023/08/31 01:36:42;;;;;;;0.00;0.00;;;13.90;96.90;;;;;;5038408;28;20259;-76
2023/08/31 01:39:18;;;;;;;0.00;0.00;;;14.00;96.90;;;;;;5043494;28;20129;-76
2023/08/31 01:42:00;;;;;;;0.08;0.08;;;13.80;97.00;;;;;;5045217;28;20025;-80
2023/08/31 01:44:28;;;;;;;0.20;0.20;;;13.70;97.20;;;;;;5040037;28;20033;-76
2023/08/31 01:46:58;;;;;;;0.10;0.10;;;13.60;97.40;;;;;;5046794;28;20040;-78
2023/08/31 01:49:24;;;;;;;0.10;0.10;;;13.60;97.30;;;;;;5040373;28;20031;-77
2023/08/31 01:51:49;;;;;;;0.10;0.10;;;13.70;97.20;;;;;;5044736;28;20112;-76
2023/08/31 01:54:15;;;;;;;0.10;0.10;;;13.60;97.30;;;;;;5044224;28;20049;-78
2023/08/31 01:56:41;;;;;;;0.10;0.10;;;13.60;97.20;;;;;;5044992;28;20032;-75
2023/08/31 01:59:07;;;;;;;0.10;0.10;;;13.50;97.50;;;;;;5043094;28;20036;-75
2023/08/31 02:01:33;;;;;;;0.10;0.10;;;13.50;97.80;;;;;;5039545;28;20048;-75
2023/08/31 02:03:59;;;;;;;0.10;0.10;;;13.50;97.60;;;;;;5038915;28;20163;-73
2023/08/31 02:06:24;;;;;;;0.32;0.32;;;13.40;97.90;;;;;;5044381;28;20033;-76
2023/08/31 02:08:50;;;;;;;0.10;0.10;;;13.40;98.30;;;;;;5044957;28;20088;-75
2023/08/31 02:11:15;;;;;;;0.10;0.10;;;13.30;98.40;;;;;;5044963;28;20074;-76
2023/08/31 02:13:42;;;;;;;0.00;0.00;;;13.30;98.50;;;;;;5049517;28;20037;-74
2023/08/31 02:16:08;;;;;;;0.00;0.00;;;13.30;98.60;;;;;;5044415;28;20450;-75
2023/08/31 02:18:33;;;;;;;0.10;0.10;;;13.30;98.90;;;;;;5044550;28;20037;-76
2023/08/31 02:20:59;;;;;;;0.10;0.10;;;13.20;99.00;;;;;;5044293;28;20028;-77
2023/08/31 02:23:24;;;;;;;0.10;0.10;;;13.20;99.50;;;;;;5044809;28;20180;-76
2023/08/31 02:25:50;;;;;;;0.00;0.00;;;13.20;99.50;;;;;;5044608;28;20488;-75
2023/08/31 02:28:17;;;;;;;0.00;0.00;;;13.20;99.20;;;;;;5041737;28;20029;-75
2023/08/31 02:30:44;;;;;;;0.10;0.10;;;13.10;99.80;;;;;;5042059;28;20517;-74
2023/08/31 02:33:10;;;;;;;0.00;0.00;;;13.00;99.70;;;;;;5041583;28;20048;-74
2023/08/31 02:35:35;;;;;;;0.00;0.00;;;13.10;99.70;;;;;;5044811;28;20484;-75
2023/08/31 02:38:02;;;;;;;0.10;0.10;;;13.10;99.70;;;;;;5045808;28;20033;-76
2023/08/31 02:40:28;;;;;;;0.10;0.10;;;13.10;99.90;;;;;;5048217;28;20519;-75
2023/08/31 02:42:53;;;;;;;0.10;0.10;;;13.00;99.90;;;;;;5044455;28;20066;-74
2023/08/31 02:45:19;;;;;;;0.03;0.03;;;13.10;99.70;;;;;;5041359;28;20029;-77
2023/08/31 02:47:45;;;;;;;0.00;0.00;;;13.10;99.70;;;;;;5043392;28;20028;-74
2023/08/31 02:50:11;;;;;;;0.33;0.33;;;13.00;99.90;;;;;;5043887;28;20033;-76
2023/08/31 02:52:36;;;;;;;0.10;0.10;;;13.10;99.90;;;;;;5043618;28;20045;-78
2023/08/31 02:55:02;;;;;;;0.10;0.10;;;13.10;99.90;;;;;;5042591;28;20048;-74
2023/08/31 02:57:28;;;;;;;0.10;0.10;;;13.10;99.90;;;;;;5043830;28;20044;-74
2023/08/31 02:59:53;;;;;;;0.00;0.00;;;13.10;99.90;;;;;;5043967;28;20160;-78
2023/08/31 03:02:19;;;;;;;0.10;0.10;;;13.00;99.90;;;;;;5043458;28;20099;-75
2023/08/31 03:04:45;;;;;;;0.10;0.10;;;13.00;99.90;;;;;;5043479;28;20044;-75
2023/08/31 03:07:13;;;;;;;0.10;0.10;;;13.00;99.90;;;;;;5043261;28;20021;-77
2023/08/31 03:09:39;;;;;;;0.10;0.10;;;13.00;99.90;;;;;;5052043;28;20139;-77
2023/08/31 03:12:05;;;;;;;0.10;0.10;;;13.00;99.90;;;;;;5045691;28;20052;-75
2023/08/31 03:14:31;;;;;;;0.10;0.10;;;13.00;99.90;;;;;;5046077;28;20140;-74
2023/08/31 03:16:57;;;;;;;0.10;0.10;;;12.90;99.90;;;;;;5043343;28;20052;-76
2023/08/31 03:19:22;;;;;;;0.00;0.00;;;13.00;99.90;;;;;;5043170;28;20036;-76
2023/08/31 03:21:49;;;;;;;0.10;0.10;;;13.00;99.90;;;;;;5043760;28;20033;-76
2023/08/31 03:24:15;;;;;;;0.10;0.10;;;13.00;99.90;;;;;;5045377;28;20025;-75
2023/08/31 03:26:40;;;;;;;0.10;0.10;;;13.10;99.90;;;;;;5043314;28;20061;-76
2023/08/31 03:29:06;;;;;;;0.10;0.10;;;12.90;99.90;;;;;;5041643;28;20033;-75
2023/08/31 03:31:32;;;;;;;0.10;0.10;;;12.90;99.90;;;;;;5043234;28;20036;-74
2023/08/31 03:33:58;;;;;;;0.10;0.10;;;12.80;99.90;;;;;;5040166;28;20846;-75
2023/08/31 03:36:23;;;;;;;0.10;0.10;;;12.80;99.90;;;;;;5037092;28;20094;-73
2023/08/31 03:38:49;;;;;;;0.10;0.10;;;12.90;99.90;;;;;;5041076;28;20029;-79
2023/08/31 03:41:15;;;;;;;0.10;0.10;;;12.90;99.90;;;;;;5039610;28;20495;-77
2023/08/31 03:43:41;;;;;;;0.10;0.10;;;13.00;99.90;;;;;;5047766;28;20496;-73
2023/08/31 03:46:06;;;;;;;0.00;0.00;;;13.10;99.90;;;;;;5042618;28;20116;-75
2023/08/31 03:48:32;;;;;;;0.10;0.10;;;13.20;99.90;;;;;;5042604;28;20032;-78
2023/08/31 03:50:58;;;;;;;0.00;0.00;;;13.40;99.90;;;;;;5043144;28;20056;-75
2023/08/31 03:53:23;;;;;;;0.00;0.00;;;13.50;99.90;;;;;;5042664;28;20035;-74
2023/08/31 03:55:49;;;;;;;0.10;0.10;;;13.50;99.90;;;;;;5030921;28;20029;-76
2023/08/31 03:58:15;;;;;;;0.10;0.10;;;13.60;99.90;;;;;;5042817;28;20752;-75
2023/08/31 04:00:41;;;;;;;0.10;0.10;;;13.60;99.90;;;;;;5042583;28;20029;-76
2023/08/31 04:03:08;;;;;;;0.65;0.65;;;13.70;99.90;;;;;;5042678;28;20036;-74
2023/08/31 04:05:35;;;;;;;0.00;0.00;;;13.70;99.90;;;;;;5041482;28;20434;-76
2023/08/31 04:08:02;;;;;;;0.00;0.00;;;13.60;99.90;;;;;;5041123;28;20067;-75
2023/08/31 04:10:29;;;;;;;0.10;0.10;;;13.70;99.90;;;;;;5042661;28;20029;-73
2023/08/31 04:12:55;;;;;;;0.10;0.10;;;13.70;99.90;;;;;;5041911;28;20143;-75
2023/08/31 04:15:21;;;;;;;0.10;0.10;;;13.70;99.90;;;;;;5043149;28;20124;-75
2023/08/31 04:17:47;;;;;;;0.00;0.00;;;13.60;99.90;;;;;;5042903;28;20037;-77
2023/08/31 04:20:12;;;;;;;0.00;0.00;;;13.50;99.90;;;;;;5042526;28;20539;-75
2023/08/31 04:22:38;;;;;;;0.00;0.00;;;13.60;99.90;;;;;;5042714;28;20496;-77
2023/08/31 04:25:04;;;;;;;0.00;0.00;;;13.70;99.90;;;;;;5041423;28;20215;-74
2023/08/31 04:27:31;;;;;;;0.10;0.10;;;13.80;99.90;;;;;;5041717;28;20044;-75
2023/08/31 04:30:00;;;;;;;0.00;0.00;;;13.60;99.90;;;;;;5041219;28;20017;-75
2023/08/31 04:32:26;;;;;;;0.00;0.00;;;13.20;99.90;;;;;;5040003;28;20037;-75
2023/08/31 04:34:52;;;;;;;0.00;0.00;;;13.10;99.90;;;;;;5043387;28;20052;-76
2023/08/31 04:37:18;;;;;;;0.00;0.00;;;13.20;99.90;;;;;;5043683;28;20490;-79
2023/08/31 04:39:44;;;;;;;0.08;0.08;;;13.10;99.90;;;;;;5045917;28;20809;-76
2023/08/31 04:42:09;;;;;;;0.00;0.00;;;13.00;99.90;;;;;;5042993;28;20079;-75
2023/08/31 04:44:35;;;;;;;0.10;0.10;;;13.00;99.90;;;;;;5051568;28;20060;-74
2023/08/31 04:47:01;;;;;;;0.10;0.10;;;12.70;99.90;;;;;;5041734;28;20057;-75
2023/08/31 04:49:27;;;;;;;0.10;0.10;;;12.60;99.90;;;;;;5041156;28;20551;-76
2023/08/31 04:51:53;;;;;;;0.43;0.43;;;12.50;99.90;;;;;;5039065;28;20079;-75
2023/08/31 04:54:19;;;;;;;0.10;0.10;;;12.50;99.90;;;;;;5039051;28;21089;-75
2023/08/31 04:56:44;;;;;;;0.00;0.00;;;12.50;99.90;;;;;;5039748;28;20070;-77
2023/08/31 04:59:10;;;;;;;0.17;0.17;;;12.60;99.90;;;;;;5041897;28;20033;-74
2023/08/31 05:01:36;;;;;;;0.10;0.10;;;12.60;99.90;;;;;;5042365;28;20029;-74
2023/08/31 05:04:03;;;;;;;0.00;0.00;;;12.50;99.90;;;;;;5045434;28;20033;-73
2023/08/31 05:06:28;;;;;;;;;;;12.50;99.90;;;;;;5043262;28;20025;-77
2023/08/31 05:08:54;;;;;;;0.10;0.10;;;12.40;99.90;;;;;;5045909;28;20499;-75
2023/08/31 05:11:20;;;;;;;0.10;0.10;;;12.40;99.90;;;;;;5040510;28;20543;-74
2023/08/31 05:13:46;;;;;;;0.10;0.10;;;12.40;99.90;;;;;;5044075;28;20072;-76
2023/08/31 05:16:12;;;;;;;0.10;0.10;;;12.50;99.90;;;;;;5044264;28;20043;-73
2023/08/31 05:18:40;;;;;;;0.10;0.10;;;12.60;99.90;;;;;;5045952;28;20037;-75
2023/08/31 05:21:05;;;;;;;0.35;0.35;;;12.80;99.90;;;;;;5044041;28;20025;-76
2023/08/31 05:23:31;;;;;;;0.10;0.10;;;13.10;99.90;;;;;;5045402;28;20541;-78
2023/08/31 05:25:57;;;;;;;0.63;0.63;;;13.30;99.90;;;;;;5042670;28;20096;-78
2023/08/31 05:28:23;;;;;;;0.17;0.17;;;12.90;99.90;;;;;;5037975;28;20029;-74
2023/08/31 05:30:53;;;;;;;0.08;0.08;;;12.70;99.90;;;;;;5039078;28;20033;-74
2023/08/31 05:33:20;;;;;;;0.30;0.30;;;12.70;99.90;;;;;;5042690;28;20132;-74
2023/08/31 05:35:46;;;;;;;0.10;0.10;;;12.80;99.90;;;;;;5041956;28;20033;-76
2023/08/31 05:38:12;;;;;;;0.20;0.20;;;13.00;99.90;;;;;;5042809;28;20440;-77
2023/08/31 05:40:38;;;;;;;0.10;0.10;;;13.00;99.90;;;;;;5042392;28;20481;-77
2023/08/31 05:43:04;;;;;;;0.03;0.03;;;13.00;99.90;;;;;;5042045;28;20144;-76
2023/08/31 05:45:34;;;;;;;0.00;0.00;;;12.70;99.90;;;;;;5042442;28;20557;-74
2023/08/31 05:48:00;;;;;;;0.10;0.10;;;12.80;99.90;;;;;;5038310;28;20029;-78
2023/08/31 05:50:27;;;;;;;1.42;1.38;;;13.00;99.90;;;;;;5041068;28;20033;-81
2023/08/31 05:52:53;;;;;;;;;;;13.30;99.90;;;;;;5041532;28;20045;-75
2023/08/31 05:55:19;;;;;;;0.52;0.52;;;13.40;99.90;;;;;;5042171;28;19912;-74
2023/08/31 05:57:44;;;;;;;0.00;0.00;;;13.40;99.90;;;;;;5039802;28;20030;-75
2023/08/31 06:00:11;;;;;;;0.00;0.00;;;13.50;99.90;;;;;;5039235;28;20035;-73
2023/08/31 06:02:37;;;;;;;0.00;0.00;;;13.30;99.90;;;;;;5038420;28;20115;-77
2023/08/31 06:05:04;;;;;;;0.20;0.20;;;13.20;99.90;;;;;;5043183;28;20033;-74
2023/08/31 06:07:29;;;;;;;;;;;13.50;99.90;;;;;;5042698;28;20476;-75
2023/08/31 06:09:56;;;;;;;0.00;0.00;;;13.90;99.90;;;;;;5043030;28;19913;-74
2023/08/31 06:12:22;;;;;;;0.10;0.10;;;14.20;99.90;;;;;;5042922;28;20036;-74
2023/08/31 06:14:47;;;;;;;0.10;0.10;;;14.30;99.90;;;;;;5044012;28;20029;-75
2023/08/31 06:17:13;;;;;;;0.00;0.00;;;14.30;99.90;;;;;;5044258;28;20032;-74
2023/08/31 06:19:40;;;;;;;0.00;0.00;;;13.90;99.90;;;;;;5045272;28;20884;-74
2023/08/31 06:22:05;;;;;;;0.10;0.10;;;13.80;99.90;;;;;;5036665;28;20512;-75
2023/08/31 06:24:32;;;;;;;0.00;0.00;;;14.20;99.90;;;;;;5042421;28;20100;-73
2023/08/31 06:26:58;;;;;;;0.10;0.10;;;14.80;99.90;;;;;;5044249;28;20136;-73
2023/08/31 06:29:24;;;;;;;0.03;0.03;;;15.20;99.10;;;;;;5042402;28;20061;-73
2023/08/31 06:31:49;;;;;;;0.00;0.00;;;15.20;98.70;;;;;;5045343;28;20029;-76
2023/08/31 06:34:15;;;;;;;0.00;0.00;;;14.90;99.10;;;;;;5043221;28;20068;-75
2023/08/31 06:36:41;;;;;;;8.17;2.60;;;14.70;99.70;;;;;;5044120;28;20087;-73
2023/08/31 06:39:07;;;;;;;0.00;0.00;;;14.60;99.90;;;;;;5042928;28;20053;-74
2023/08/31 06:41:32;;;;;;;0.20;0.20;;;15.60;98.60;;;;;;5042903;28;20052;-73
2023/08/31 06:43:58;;;;;;;0.00;0.00;;;17.10;95.30;;;;;;5048093;28;20025;-74
2023/08/31 06:46:24;;;;;;;0.00;0.00;;;18.10;93.50;;;;;;5044279;28;20102;-74
2023/08/31 06:48:50;;;;;;;0.40;0.40;;;19.30;91.10;;;;;;5041935;28;20078;-73
2023/08/31 06:51:16;;;;;;;0.00;0.00;;;19.50;89.00;;;;;;5044544;28;20033;-74
2023/08/31 06:53:45;;;;;;;0.00;0.00;;;19.70;87.60;;;;;;5043191;28;20049;-74
2023/08/31 06:56:10;;;;;;;0.00;0.00;;;19.30;88.30;;;;;;5037861;28;20032;-73
2023/08/31 06:58:36;;;;;;;0.00;0.00;;;18.10;89.10;;;;;;5040273;28;20424;-73
2023/08/31 07:01:05;;;;;;;0.00;0.00;;;18.30;90.50;;;;;;5041656;28;20231;-72
2023/08/31 07:03:31;;;;;;;0.10;0.10;;;19.20;87.50;;;;;;5038632;28;20105;-73
2023/08/31 07:05:57;;;;;;;0.00;0.00;;;20.60;83.00;;;;;;5043021;28;20116;-73
2023/08/31 07:08:23;;;;;;;0.00;0.00;;;20.50;82.30;;;;;;5049205;28;20028;-72
2023/08/31 07:10:52;;;;;;;0.00;0.00;;;21.10;80.00;;;;;;5038009;28;20848;-72
2023/08/31 07:13:17;;;;;;;0.00;0.00;;;22.50;77.10;;;;;;5035480;28;20033;-74
2023/08/31 07:15:43;;;;;;;0.10;0.10;;;23.00;76.00;;;;;;5042033;28;20078;-73
2023/08/31 07:18:09;;;;;;;0.00;0.00;;;23.50;73.70;;;;;;5043124;28;20041;-73
2023/08/31 07:20:35;;;;;;;0.00;0.00;;;23.20;73.50;;;;;;5039768;28;20021;-72
2023/08/31 07:23:00;;;;;;;0.00;0.00;;;22.30;76.40;;;;;;5042737;28;20047;-73
2023/08/31 07:25:27;;;;;;;0.00;0.00;;;21.60;78.30;;;;;;5042119;28;20032;-73
2023/08/31 07:27:53;;;;;;;;;;;21.30;77.30;;;;;;5039276;28;20284;-72
2023/08/31 07:30:18;;;;;;;0.65;0.65;;;21.00;76.40;;;;;;5035109;28;20004;-74
2023/08/31 07:32:44;;;;;;;0.00;0.00;;;20.80;77.50;;;;;;5042831;28;20040;-74
2023/08/31 07:35:10;;;;;;;0.00;0.00;;;20.50;79.00;;;;;;5041764;28;20198;-73
2023/08/31 07:37:37;;;;;;;0.00;0.00;;;22.10;74.30;;;;;;5043094;28;20119;-72
2023/08/31 07:40:08;;;;;;;0.00;0.00;;;22.20;73.00;;;;;;5042032;28;20742;-72
2023/08/31 07:42:34;;;;;;;0.00;0.00;;;20.70;75.50;;;;;;5040707;28;20064;-71
2023/08/31 07:45:00;;;;;;;0.00;0.00;;;20.00;79.90;;;;;;5037800;28;20055;-72
2023/08/31 07:47:25;;;;;;;0.00;0.00;;;20.50;78.80;;;;;;5039637;28;20675;-72
2023/08/31 07:49:51;;;;;;;0.00;0.00;;;21.80;74.40;;;;;;5042989;28;20052;-72
2023/08/31 07:52:17;;;;;;;3.77;2.97;;;21.40;74.30;;;;;;5042979;28;20048;-73
2023/08/31 07:54:43;;;;;;;0.00;0.00;;;21.40;75.20;;;;;;5043628;28;20049;-73
2023/08/31 07:57:08;;;;;;;0.00;0.00;;;21.00;76.70;;;;;;5042624;28;20032;-74
2023/08/31 07:59:34;;;;;;;0.00;0.00;;;20.30;76.80;;;;;;5042110;28;20028;-73
2023/08/31 08:02:00;;;;;;;0.00;0.00;;;20.40;77.70;;;;;;5040862;28;20031;-73
2023/08/31 08:04:26;;;;;;;0.00;0.00;;;20.00;78.40;;;;;;5043287;28;20028;-72
2023/08/31 08:06:52;;;;;;;;;;;19.90;80.50;;;;;;5043224;28;20017;-73
2023/08/31 08:09:18;;;;;;;0.20;0.17;;;19.60;80.60;;;;;;5043068;28;19983;-73
2023/08/31 08:11:43;;;;;;;0.00;0.00;;;18.90;82.70;;;;;;5042857;28;20492;-72
2023/08/31 08:14:09;;;;;;;0.00;0.00;;;18.90;82.30;;;;;;5042665;28;20044;-71
2023/08/31 08:16:35;;;;;;;1.03;0.93;;;19.60;81.00;;;;;;5042417;28;20707;-73
2023/08/31 08:19:01;;;;;;;1.13;1.08;;;19.10;82.10;;;;;;5037012;28;20017;-72
2023/08/31 08:21:27;;;;;;;0.00;0.00;;;19.60;83.10;;;;;;5042590;28;20087;-73
2023/08/31 08:23:52;;;;;;;0.00;0.00;;;19.60;81.40;;;;;;5044447;28;20367;-73
2023/08/31 08:26:18;;;;;;;0.00;0.00;;;19.30;83.20;;;;;;5041692;28;20056;-72
2023/08/31 08:28:45;;;;;;;0.00;0.00;;;19.50;83.20;;;;;;5042267;28;20025;-72
2023/08/31 08:31:11;;;;;;;0.00;0.00;;;21.80;79.00;;;;;;5042679;28;20029;-73
2023/08/31 08:33:37;;;;;;;0.00;0.00;;;22.20;73.40;;;;;;5041861;28;20064;-73
2023/08/31 08:36:02;;;;;;;2.00;1.83;;;22.30;73.70;;;;;;5042578;28;20064;-72
2023/08/31 08:38:28;;;;;;;0.00;0.00;;;21.40;75.10;;;;;;5040082;28;20021;-72
2023/08/31 08:40:54;;;;;;;0.00;0.00;;;22.60;74.90;;;;;;5040306;28;20262;-71
2023/08/31 08:43:25;;;;;;;4.00;0.93;;;23.40;71.30;;;;;;5031683;28;20029;-73
2023/08/31 08:45:52;;;;;;;0.00;0.00;;;23.70;71.30;;;;;;5040927;28;20025;-73
2023/08/31 08:48:19;;;;;;;0.00;0.00;;;22.40;71.60;;;;;;5043186;28;20025;-72
2023/08/31 08:50:45;;;;;;;0.10;0.10;;;21.00;76.20;;;;;;5038491;28;20116;-75
2023/08/31 08:53:13;;;;;;;0.00;0.00;;;22.00;74.20;;;;;;5035158;28;20531;-73
2023/08/31 08:55:40;;;;;;;0.00;0.00;;;24.80;71.20;;;;;;5041824;28;20033;-73
2023/08/31 08:58:06;;;;;;;0.00;0.00;;;24.20;68.30;;;;;;5044617;28;20025;-73
2023/08/31 09:00:32;;;;;;;0.00;0.00;;;23.50;70.20;;;;;;5045502;28;20043;-74
2023/08/31 09:03:00;;;;;;;0.00;0.00;;;23.30;69.90;;;;;;5044244;28;20359;-74
2023/08/31 09:05:26;;;;;;;0.00;0.00;;;23.40;70.80;;;;;;5046195;28;20537;-73
2023/08/31 09:08:09;;;;;;;0.00;0.00;;;23.80;69.10;;;;;;5043211;28;20025;-73
2023/08/31 09:10:36;;;;;;;0.00;0.00;;;23.20;71.20;;;;;;5040518;28;20295;-74
2023/08/31 09:13:04;;;;;;;0.00;0.00;;;23.80;71.10;;;;;;5043942;28;20124;-73
2023/08/31 09:15:39;;;;;;;0.00;0.00;;;25.70;68.90;;;;;;5038745;28;20033;-73
2023/08/31 09:18:04;;;;;;;0.00;0.00;;;26.10;65.20;;;;;;5045315;28;20047;-73
2023/08/31 09:20:30;;;;;;;0.00;0.00;;;27.10;65.30;;;;;;5043766;28;20488;-72
2023/08/31 09:22:56;;;;;;;0.00;0.00;;;28.80;62.90;;;;;;5045200;28;20068;-74
2023/08/31 09:25:22;;;;;;;0.00;0.00;;;30.30;59.00;;;;;;5044518;28;20535;-75
2023/08/31 09:27:48;;;;;;;0.00;0.00;;;29.30;55.60;;;;;;5044608;28;20025;-73
2023/08/31 09:30:14;;;;;;;0.10;0.10;;;25.10;61.90;;;;;;5041404;28;20126;-73
2023/08/31 09:32:41;;;;;;;0.00;0.00;;;24.60;65.10;;;;;;5045861;28;20685;-73
2023/08/31 09:35:11;;;;;;;0.00;0.00;;;26.80;63.80;;;;;;5042382;28;20045;-75
2023/08/31 09:37:37;;;;;;;0.00;0.00;;;29.40;56.50;;;;;;5043328;28;20125;-74
2023/08/31 09:40:03;;;;;;;0.00;0.00;;;29.70;57.10;;;;;;5038556;28;20037;-74
2023/08/31 09:42:38;;;;;;;0.00;0.00;;;27.30;57.90;;;;;;5041802;28;20057;-73
2023/08/31 09:45:05;;;;;;;0.00;0.00;;;25.90;61.80;;;;;;5044624;28;20128;-73
2023/08/31 09:47:30;;;;;;;;;;;27.30;62.30;;;;;;5044857;28;20036;-73
2023/08/31 09:49:58;;;;;;;0.08;0.08;;;29.90;58.00;;;;;;5045253;28;20295;-73
2023/08/31 09:52:24;;;;;;;0.60;0.43;;;30.00;55.60;;;;;;5044989;28;20056;-73
2023/08/31 09:54:52;;;;;;;0.00;0.00;;;29.00;55.90;;;;;;5041841;28;20041;-72
2023/08/31 09:57:20;;;;;;;0.00;0.00;;;27.60;56.00;;;;;;5042747;28;20028;-72
2023/08/31 09:59:46;;;;;;;0.00;0.00;;;26.70;60.60;;;;;;5040094;28;20021;-73
2023/08/31 10:02:15;;;;;;;0.00;0.00;;;24.70;63.50;;;;;;5044624;28;20084;-73
2023/08/31 10:04:42;;;;;;;0.00;0.00;;;24.80;66.50;;;;;;5044583;28;20025;-72
2023/08/31 10:07:11;;;;;;;0.00;0.00;;;25.80;62.90;;;;;;5044453;28;20076;-75
2023/08/31 10:09:37;;;;;;;0.00;0.00;;;26.50;60.80;;;;;;5045091;28;20055;-72
2023/08/31 10:12:04;;;;;;;0.85;0.75;;;26.00;62.00;;;;;;5043469;28;20483;-72
2023/08/31 10:14:31;;;;;;;0.00;0.00;;;26.90;64.10;;;;;;5042190;28;20048;-72
2023/08/31 10:16:58;;;;;;;0.00;0.00;;;27.80;59.10;;;;;;5044236;28;20487;-74
2023/08/31 10:19:23;;;;;;;0.00;0.00;;;27.40;57.80;;;;;;5034888;28;20529;-74
2023/08/31 10:21:49;;;;;;;0.10;0.10;;;26.40;59.70;;;;;;5034867;28;20036;-72
2023/08/31 10:24:15;;;;;;;0.00;0.00;;;26.50;61.40;;;;;;5043907;28;20146;-73
2023/08/31 10:26:41;;;;;;;0.00;0.00;;;26.70;60.60;;;;;;5041805;28;20287;-73
2023/08/31 10:29:26;;;;;;;0.00;0.00;;;25.10;59.00;;;;;;5043863;28;20271;-75
2023/08/31 10:31:54;;;;;;;0.00;0.00;;;25.30;61.00;;;;;;5043999;28;20310;-75
2023/08/31 10:34:36;;;;;;;0.00;0.00;;;24.90;62.10;;;;;;5044682;28;20373;-73
2023/08/31 10:37:03;;;;;;;0.00;0.00;;;25.60;62.10;;;;;;5044245;28;20040;-75
2023/08/31 10:39:37;;;;;;;0.00;0.00;;;25.50;61.20;;;;;;5044315;28;20028;-72
2023/08/31 10:42:03;;;;;;;0.00;0.00;;;25.50;63.10;;;;;;5040326;28;20033;-73
2023/08/31 10:44:32;;;;;;;0.00;0.00;;;25.20;63.20;;;;;;5043982;28;20032;-73
2023/08/31 10:47:04;;;;;;;0.00;0.00;;;24.90;63.10;;;;;;5040656;28;20074;-75
2023/08/31 10:49:32;;;;;;;0.00;0.00;;;25.00;64.00;;;;;;5034259;28;20029;-72
2023/08/31 10:52:19;;;;;;;0.00;0.00;;;24.90;62.60;;;;;;5035428;28;20017;-74
2023/08/31 10:54:46;;;;;;;0.00;0.00;;;24.40;65.10;;;;;;5031043;28;20140;-74
2023/08/31 10:57:14;;;;;;;0.17;0.17;;;23.60;64.40;;;;;;5037240;28;20561;-73
2023/08/31 10:59:53;;;;;;;0.00;0.00;;;23.10;65.10;;;;;;5041494;28;20141;-72
2023/08/31 11:02:35;;;;;;;0.00;0.00;;;23.40;65.70;;;;;;5035612;28;20116;-75
2023/08/31 11:05:04;;;;;;;0.00;0.00;;;23.90;65.00;;;;;;5040775;28;20028;-72
2023/08/31 11:07:30;;;;;;;0.13;0.13;;;23.90;63.70;;;;;;5048457;28;20743;-74
2023/08/31 11:10:19;;;;;;;0.00;0.00;;;23.70;62.80;;;;;;5034913;28;20191;-73
2023/08/31 11:12:53;;;;;;;0.00;0.00;;;23.50;62.80;;;;;;5042776;28;20132;-73
2023/08/31 11:15:21;;;;;;;0.00;0.00;;;22.90;64.60;;;;;;5039252;28;20029;-73
2023/08/31 11:17:49;;;;;;;0.00;0.00;;;23.50;65.20;;;;;;5043202;28;20029;-73
2023/08/31 11:20:16;;;;;;;0.00;0.00;;;24.10;66.00;;;;;;5042841;28;20060;-73
2023/08/31 11:22:45;;;;;;;0.55;0.55;;;23.70;64.00;;;;;;5043534;28;20649;-73
2023/08/31 11:25:13;;;;;;;0.43;0.43;;;23.50;65.40;;;;;;5042918;28;20056;-73
2023/08/31 11:27:39;;;;;;;0.00;0.00;;;22.90;65.80;;;;;;5043316;28;20064;-74
2023/08/31 11:30:15;;;;;;;0.00;0.00;;;23.30;65.30;;;;;;5043356;28;20056;-73
2023/08/31 11:32:49;;;;;;;0.00;0.00;;;23.50;65.50;;;;;;5042927;28;20029;-72
2023/08/31 11:35:16;;;;;;;0.00;0.00;;;23.40;65.00;;;;;;5042298;28;20057;-73
2023/08/31 11:37:44;;;;;;;0.00;0.00;;;23.50;65.60;;;;;;5042675;28;20203;-74
2023/08/31 11:40:10;;;;;;;0.00;0.00;;;23.60;67.50;;;;;;5043344;28;20024;-75
2023/08/31 11:42:36;;;;;;;0.00;0.00;;;23.60;65.40;;;;;;5043399;28;20830;-72
2023/08/31 11:45:05;;;;;;;;;;;23.60;65.10;;;;;;5037757;28;20572;-72
2023/08/31 11:47:31;;;;;;;0.15;0.15;;;23.50;64.70;;;;;;5041997;28;19916;-74
2023/08/31 11:49:57;;;;;;;;;;;23.60;68.00;;;;;;5043454;28;20033;-73
2023/08/31 11:52:23;;;;;;;0.10;0.10;;;23.70;67.00;;;;;;5028544;28;19913;-72
2023/08/31 11:54:53;;;;;;;0.10;0.10;;;23.70;66.20;;;;;;5043052;28;20063;-73
2023/08/31 11:57:18;;;;;;;0.00;0.00;;;23.60;68.70;;;;;;5042352;28;20044;-73
2023/08/31 11:59:44;;;;;;;0.00;0.00;;;23.60;68.60;;;;;;5042503;28;20028;-73
2023/08/31 12:02:10;;;;;;;0.00;0.00;;;23.40;65.70;;;;;;5042903;28;20037;-74
2023/08/31 12:04:45;;;;;;;0.03;0.03;;;23.20;66.00;;;;;;5043134;28;20028;-73
2023/08/31 12:07:15;;;;;;;0.00;0.00;;;23.20;64.70;;;;;;5043219;28;20760;-73
2023/08/31 12:09:41;;;;;;;0.00;0.00;;;23.30;65.10;;;;;;5043128;28;20107;-73
2023/08/31 12:12:08;;;;;;;0.00;0.00;;;23.30;65.00;;;;;;5042644;28;20709;-73
2023/08/31 12:14:36;;;;;;;0.00;0.00;;;23.30;64.90;;;;;;5042755;28;20041;-73
2023/08/31 12:17:07;;;;;;;0.00;0.00;;;24.00;68.50;;;;;;5044682;28;20169;-74
2023/08/31 12:19:33;;;;;;;0.00;0.00;;;24.20;66.80;;;;;;5046790;28;20032;-74
2023/08/31 12:21:59;;;;;;;0.00;0.00;;;23.80;64.70;;;;;;5046821;28;20025;-73
2023/08/31 12:24:25;;;;;;;0.00;0.00;;;24.10;68.30;;;;;;5045719;28;20408;-73
2023/08/31 12:26:54;;;;;;;0.00;0.00;;;24.10;67.40;;;;;;5047224;28;20463;-72
2023/08/31 12:29:21;;;;;;;0.00;0.00;;;23.80;65.80;;;;;;5046757;28;20107;-73
2023/08/31 12:31:47;;;;;;;0.00;0.00;;;24.00;68.20;;;;;;5046615;28;20025;-72
2023/08/31 12:34:13;;;;;;;0.00;0.00;;;23.80;67.80;;;;;;5046611;28;20057;-73
2023/08/31 12:36:40;;;;;;;0.00;0.00;;;23.80;68.70;;;;;;5046585;28;20032;-73
2023/08/31 12:39:09;;;;;;;0.00;0.00;;;24.10;69.70;;;;;;5046621;28;20017;-72
2023/08/31 12:41:35;;;;;;;0.00;0.00;;;24.10;67.00;;;;;;5046774;28;20104;-72
2023/08/31 12:44:03;;;;;;;0.00;0.00;;;24.00;67.50;;;;;;5046225;28;20040;-73
2023/08/31 12:46:29;;;;;;;0.00;0.00;;;24.10;68.10;;;;;;5045719;28;20037;-73
2023/08/31 12:48:55;;;;;;;0.00;0.00;;;23.80;65.50;;;;;;5045641;28;20017;-73